sensor_id;sensor_type;location;lat;lon;timestamp;P1;durP1;ratioP1;P2;durP2;ratioP2
5379;SDS011;2713;42.680;23.310;2023-03-02T00:00:39;3.47;;;3.17;;
5379;SDS011;2713;42.680;23.310;2023-03-02T00:03:08;3.93;;;3.60;;
5379;SDS011;2713;42.680;23.310;2023-03-02T00:05:36;3.50;;;3.20;;
5379;SDS011;2713;42.680;23.310;2023-03-02T00:08:06;3.35;;;3.10;;
5379;SDS011;2713;42.680;23.310;2023-03-02T00:10:34;3.50;;;3.20;;
5379;SDS011;2713;42.680;23.310;2023-03-02T00:13:02;3.50;;;3.20;;
5379;SDS011;2713;42.680;23.310;2023-03-02T00:15:30;3.27;;;2.97;;
5379;SDS011;2713;42.680;23.310;2023-03-02T00:17:56;2.85;;;2.65;;
5379;SDS011;2713;42.680;23.310;2023-03-02T00:20:23;3.37;;;3.07;;
5379;SDS011;2713;42.680;23.310;2023-03-02T00:22:50;4.00;;;3.47;;
5379;SDS011;2713;42.680;23.310;2023-03-02T00:25:18;4.10;;;3.70;;
5379;SDS011;2713;42.680;23.310;2023-03-02T00:27:45;3.87;;;3.53;;
5379;SDS011;2713;42.680;23.310;2023-03-02T00:30:12;3.50;;;3.20;;
5379;SDS011;2713;42.680;23.310;2023-03-02T00:32:40;3.90;;;3.55;;
5379;SDS011;2713;42.680;23.310;2023-03-02T00:35:08;3.90;;;3.47;;
5379;SDS011;2713;42.680;23.310;2023-03-02T00:37:35;3.40;;;3.10;;
5379;SDS011;2713;42.680;23.310;2023-03-02T00:40:03;3.10;;;2.90;;
5379;SDS011;2713;42.680;23.310;2023-03-02T00:42:33;3.28;;;3.00;;
5379;SDS011;2713;42.680;23.310;2023-03-02T00:45:00;3.20;;;3.00;;
5379;SDS011;2713;42.680;23.310;2023-03-02T00:47:27;3.25;;;3.03;;
5379;SDS011;2713;42.680;23.310;2023-03-02T00:49:55;3.30;;;3.00;;
5379;SDS011;2713;42.680;23.310;2023-03-02T00:52:22;4.00;;;3.63;;
5379;SDS011;2713;42.680;23.310;2023-03-02T00:54:49;3.35;;;3.13;;
5379;SDS011;2713;42.680;23.310;2023-03-02T00:57:16;3.33;;;3.03;;
5379;SDS011;2713;42.680;23.310;2023-03-02T00:59:44;3.40;;;3.10;;
5379;SDS011;2713;42.680;23.310;2023-03-02T01:02:23;3.40;;;3.10;;
5379;SDS011;2713;42.680;23.310;2023-03-02T01:04:50;3.03;;;2.83;;
5379;SDS011;2713;42.680;23.310;2023-03-02T01:07:18;2.97;;;2.77;;
5379;SDS011;2713;42.680;23.310;2023-03-02T01:09:46;2.80;;;2.40;;
5379;SDS011;2713;42.680;23.310;2023-03-02T01:12:14;2.75;;;2.55;;
5379;SDS011;2713;42.680;23.310;2023-03-02T01:14:42;2.50;;;2.30;;
5379;SDS011;2713;42.680;23.310;2023-03-02T01:17:13;2.70;;;2.50;;
5379;SDS011;2713;42.680;23.310;2023-03-02T01:19:41;2.40;;;2.30;;
5379;SDS011;2713;42.680;23.310;2023-03-02T01:22:08;2.38;;;2.25;;
5379;SDS011;2713;42.680;23.310;2023-03-02T01:24:35;2.60;;;2.40;;
5379;SDS011;2713;42.680;23.310;2023-03-02T01:27:02;2.70;;;2.50;;
5379;SDS011;2713;42.680;23.310;2023-03-02T01:29:29;2.60;;;2.40;;
5379;SDS011;2713;42.680;23.310;2023-03-02T01:31:56;2.10;;;2.00;;
5379;SDS011;2713;42.680;23.310;2023-03-02T01:34:24;2.55;;;2.35;;
5379;SDS011;2713;42.680;23.310;2023-03-02T01:36:51;2.30;;;2.20;;
5379;SDS011;2713;42.680;23.310;2023-03-02T01:39:18;2.50;;;2.28;;
5379;SDS011;2713;42.680;23.310;2023-03-02T01:41:47;2.65;;;2.45;;
5379;SDS011;2713;42.680;23.310;2023-03-02T01:44:35;2.33;;;2.13;;
5379;SDS011;2713;42.680;23.310;2023-03-02T01:47:11;2.00;;;1.90;;
5379;SDS011;2713;42.680;23.310;2023-03-02T01:49:50;2.40;;;2.30;;
5379;SDS011;2713;42.680;23.310;2023-03-02T01:52:22;2.30;;;2.20;;
5379;SDS011;2713;42.680;23.310;2023-03-02T01:54:50;2.75;;;2.55;;
5379;SDS011;2713;42.680;23.310;2023-03-02T01:57:20;1.90;;;1.80;;
5379;SDS011;2713;42.680;23.310;2023-03-02T01:59:51;1.80;;;1.70;;
5379;SDS011;2713;42.680;23.310;2023-03-02T02:02:20;2.15;;;2.00;;
5379;SDS011;2713;42.680;23.310;2023-03-02T02:04:47;1.90;;;1.80;;
5379;SDS011;2713;42.680;23.310;2023-03-02T02:07:16;2.03;;;1.85;;
5379;SDS011;2713;42.680;23.310;2023-03-02T02:09:44;1.92;;;1.83;;
5379;SDS011;2713;42.680;23.310;2023-03-02T02:12:13;1.60;;;1.50;;
5379;SDS011;2713;42.680;23.310;2023-03-02T02:14:41;2.92;;;2.20;;
5379;SDS011;2713;42.680;23.310;2023-03-02T02:17:09;1.80;;;1.70;;
5379;SDS011;2713;42.680;23.310;2023-03-02T02:19:41;2.35;;;1.80;;
5379;SDS011;2713;42.680;23.310;2023-03-02T02:22:19;2.42;;;2.33;;
5379;SDS011;2713;42.680;23.310;2023-03-02T02:24:58;1.90;;;1.80;;
5379;SDS011;2713;42.680;23.310;2023-03-02T02:27:30;2.30;;;2.20;;
5379;SDS011;2713;42.680;23.310;2023-03-02T02:29:58;1.88;;;1.77;;
5379;SDS011;2713;42.680;23.310;2023-03-02T02:32:29;2.38;;;2.17;;
5379;SDS011;2713;42.680;23.310;2023-03-02T02:35:01;2.38;;;2.20;;
5379;SDS011;2713;42.680;23.310;2023-03-02T02:37:32;2.00;;;1.90;;
5379;SDS011;2713;42.680;23.310;2023-03-02T02:40:03;2.03;;;1.92;;
5379;SDS011;2713;42.680;23.310;2023-03-02T02:42:36;1.92;;;1.83;;
5379;SDS011;2713;42.680;23.310;2023-03-02T02:45:06;1.80;;;1.70;;
5379;SDS011;2713;42.680;23.310;2023-03-02T02:47:42;1.90;;;1.80;;
5379;SDS011;2713;42.680;23.310;2023-03-02T02:50:10;2.17;;;1.70;;
5379;SDS011;2713;42.680;23.310;2023-03-02T02:52:44;2.15;;;2.05;;
5379;SDS011;2713;42.680;23.310;2023-03-02T02:55:19;2.60;;;2.20;;
5379;SDS011;2713;42.680;23.310;2023-03-02T02:57:52;2.10;;;2.00;;
5379;SDS011;2713;42.680;23.310;2023-03-02T03:00:22;2.00;;;1.90;;
5379;SDS011;2713;42.680;23.310;2023-03-02T03:02:51;2.35;;;2.15;;
5379;SDS011;2713;42.680;23.310;2023-03-02T03:05:23;1.90;;;1.67;;
5379;SDS011;2713;42.680;23.310;2023-03-02T03:07:50;2.80;;;2.60;;
5379;SDS011;2713;42.680;23.310;2023-03-02T03:10:18;2.50;;;2.30;;
5379;SDS011;2713;42.680;23.310;2023-03-02T03:12:55;2.40;;;2.20;;
5379;SDS011;2713;42.680;23.310;2023-03-02T03:15:22;1.98;;;1.85;;
5379;SDS011;2713;42.680;23.310;2023-03-02T03:17:52;2.08;;;1.98;;
5379;SDS011;2713;42.680;23.310;2023-03-02T03:20:20;2.58;;;2.42;;
5379;SDS011;2713;42.680;23.310;2023-03-02T03:22:49;1.90;;;1.80;;
5379;SDS011;2713;42.680;23.310;2023-03-02T03:25:20;2.22;;;1.60;;
5379;SDS011;2713;42.680;23.310;2023-03-02T03:27:50;2.00;;;1.90;;
5379;SDS011;2713;42.680;23.310;2023-03-02T03:30:20;1.92;;;1.80;;
5379;SDS011;2713;42.680;23.310;2023-03-02T03:32:47;2.55;;;2.35;;
5379;SDS011;2713;42.680;23.310;2023-03-02T03:35:15;2.00;;;1.90;;
5379;SDS011;2713;42.680;23.310;2023-03-02T03:37:42;2.30;;;2.10;;
5379;SDS011;2713;42.680;23.310;2023-03-02T03:40:10;2.25;;;1.92;;
5379;SDS011;2713;42.680;23.310;2023-03-02T03:42:40;2.17;;;2.08;;
5379;SDS011;2713;42.680;23.310;2023-03-02T03:45:08;2.05;;;1.95;;
5379;SDS011;2713;42.680;23.310;2023-03-02T03:47:37;1.80;;;1.70;;
5379;SDS011;2713;42.680;23.310;2023-03-02T03:50:06;2.53;;;2.13;;
5379;SDS011;2713;42.680;23.310;2023-03-02T03:52:34;2.17;;;1.98;;
5379;SDS011;2713;42.680;23.310;2023-03-02T03:55:22;2.05;;;1.95;;
5379;SDS011;2713;42.680;23.310;2023-03-02T03:57:53;1.90;;;1.80;;
5379;SDS011;2713;42.680;23.310;2023-03-02T04:00:20;3.25;;;1.90;;
5379;SDS011;2713;42.680;23.310;2023-03-02T04:02:55;1.90;;;1.80;;
5379;SDS011;2713;42.680;23.310;2023-03-02T04:05:24;2.20;;;2.10;;
5379;SDS011;2713;42.680;23.310;2023-03-02T04:07:52;2.35;;;2.25;;
5379;SDS011;2713;42.680;23.310;2023-03-02T04:10:20;1.85;;;1.75;;
5379;SDS011;2713;42.680;23.310;2023-03-02T04:12:49;2.50;;;1.80;;
5379;SDS011;2713;42.680;23.310;2023-03-02T04:15:16;1.80;;;1.70;;
5379;SDS011;2713;42.680;23.310;2023-03-02T04:17:45;1.90;;;1.80;;
5379;SDS011;2713;42.680;23.310;2023-03-02T04:20:16;1.80;;;1.70;;
5379;SDS011;2713;42.680;23.310;2023-03-02T04:22:47;2.00;;;1.90;;
5379;SDS011;2713;42.680;23.310;2023-03-02T04:25:18;1.80;;;1.70;;
5379;SDS011;2713;42.680;23.310;2023-03-02T04:27:49;1.92;;;1.83;;
5379;SDS011;2713;42.680;23.310;2023-03-02T04:30:18;1.98;;;1.77;;
5379;SDS011;2713;42.680;23.310;2023-03-02T04:32:46;2.10;;;1.90;;
5379;SDS011;2713;42.680;23.310;2023-03-02T04:35:14;2.03;;;1.92;;
5379;SDS011;2713;42.680;23.310;2023-03-02T04:37:42;1.75;;;1.65;;
5379;SDS011;2713;42.680;23.310;2023-03-02T04:40:12;2.38;;;2.20;;
5379;SDS011;2713;42.680;23.310;2023-03-02T04:42:40;2.47;;;2.28;;
5379;SDS011;2713;42.680;23.310;2023-03-02T04:45:09;2.92;;;2.70;;
5379;SDS011;2713;42.680;23.310;2023-03-02T04:47:37;2.38;;;2.17;;
5379;SDS011;2713;42.680;23.310;2023-03-02T04:50:04;2.63;;;2.45;;
5379;SDS011;2713;42.680;23.310;2023-03-02T04:52:34;3.13;;;2.83;;
5379;SDS011;2713;42.680;23.310;2023-03-02T04:55:01;3.30;;;3.10;;
5379;SDS011;2713;42.680;23.310;2023-03-02T04:57:28;2.90;;;2.70;;
5379;SDS011;2713;42.680;23.310;2023-03-02T04:59:55;3.35;;;3.15;;
5379;SDS011;2713;42.680;23.310;2023-03-02T05:02:22;2.97;;;2.75;;
5379;SDS011;2713;42.680;23.310;2023-03-02T05:04:49;3.20;;;3.00;;
5379;SDS011;2713;42.680;23.310;2023-03-02T05:07:16;3.20;;;3.00;;
5379;SDS011;2713;42.680;23.310;2023-03-02T05:09:44;3.00;;;2.80;;
5379;SDS011;2713;42.680;23.310;2023-03-02T05:12:11;4.95;;;3.63;;
5379;SDS011;2713;42.680;23.310;2023-03-02T05:14:38;3.55;;;3.25;;
5379;SDS011;2713;42.680;23.310;2023-03-02T05:17:05;3.33;;;3.13;;
5379;SDS011;2713;42.680;23.310;2023-03-02T05:19:33;3.42;;;3.20;;
5379;SDS011;2713;42.680;23.310;2023-03-02T05:22:00;3.88;;;3.58;;
5379;SDS011;2713;42.680;23.310;2023-03-02T05:24:27;3.60;;;3.30;;
5379;SDS011;2713;42.680;23.310;2023-03-02T05:26:55;3.70;;;3.40;;
5379;SDS011;2713;42.680;23.310;2023-03-02T05:29:22;4.10;;;3.70;;
5379;SDS011;2713;42.680;23.310;2023-03-02T05:31:49;3.22;;;3.03;;
5379;SDS011;2713;42.680;23.310;2023-03-02T05:34:16;3.88;;;3.58;;
5379;SDS011;2713;42.680;23.310;2023-03-02T05:36:43;3.72;;;3.40;;
5379;SDS011;2713;42.680;23.310;2023-03-02T05:39:11;3.95;;;3.65;;
5379;SDS011;2713;42.680;23.310;2023-03-02T05:41:38;5.15;;;3.65;;
5379;SDS011;2713;42.680;23.310;2023-03-02T05:44:06;4.32;;;4.03;;
5379;SDS011;2713;42.680;23.310;2023-03-02T05:46:36;5.03;;;4.53;;
5379;SDS011;2713;42.680;23.310;2023-03-02T05:49:03;4.60;;;4.20;;
5379;SDS011;2713;42.680;23.310;2023-03-02T05:51:30;5.07;;;4.20;;
5379;SDS011;2713;42.680;23.310;2023-03-02T05:53:57;4.70;;;4.35;;
5379;SDS011;2713;42.680;23.310;2023-03-02T05:56:23;5.45;;;4.32;;
5379;SDS011;2713;42.680;23.310;2023-03-02T05:58:50;4.70;;;4.30;;
5379;SDS011;2713;42.680;23.310;2023-03-02T06:01:18;4.60;;;4.20;;
5379;SDS011;2713;42.680;23.310;2023-03-02T06:03:45;4.65;;;4.25;;
5379;SDS011;2713;42.680;23.310;2023-03-02T06:06:12;5.07;;;4.50;;
5379;SDS011;2713;42.680;23.310;2023-03-02T06:08:39;5.63;;;4.85;;
5379;SDS011;2713;42.680;23.310;2023-03-02T06:11:06;5.30;;;4.70;;
5379;SDS011;2713;42.680;23.310;2023-03-02T06:13:34;4.90;;;4.50;;
5379;SDS011;2713;42.680;23.310;2023-03-02T06:16:01;4.75;;;4.30;;
5379;SDS011;2713;42.680;23.310;2023-03-02T06:18:29;6.05;;;4.63;;
5379;SDS011;2713;42.680;23.310;2023-03-02T06:20:56;5.28;;;4.78;;
5379;SDS011;2713;42.680;23.310;2023-03-02T06:23:24;5.93;;;4.72;;
5379;SDS011;2713;42.680;23.310;2023-03-02T06:25:50;4.72;;;4.32;;
5379;SDS011;2713;42.680;23.310;2023-03-02T06:28:18;9.50;;;6.60;;
5379;SDS011;2713;42.680;23.310;2023-03-02T06:30:46;6.43;;;4.95;;
5379;SDS011;2713;42.680;23.310;2023-03-02T06:33:14;11.05;;;6.90;;
5379;SDS011;2713;42.680;23.310;2023-03-02T06:35:43;5.68;;;5.10;;
5379;SDS011;2713;42.680;23.310;2023-03-02T06:38:10;5.32;;;4.75;;
5379;SDS011;2713;42.680;23.310;2023-03-02T06:40:37;9.30;;;6.20;;
5379;SDS011;2713;42.680;23.310;2023-03-02T06:43:04;9.63;;;6.28;;
5379;SDS011;2713;42.680;23.310;2023-03-02T06:45:31;6.80;;;5.85;;
5379;SDS011;2713;42.680;23.310;2023-03-02T06:47:59;7.13;;;5.90;;
5379;SDS011;2713;42.680;23.310;2023-03-02T06:50:26;9.30;;;5.78;;
5379;SDS011;2713;42.680;23.310;2023-03-02T06:52:54;6.78;;;5.47;;
5379;SDS011;2713;42.680;23.310;2023-03-02T06:55:21;5.93;;;4.80;;
5379;SDS011;2713;42.680;23.310;2023-03-02T06:57:48;5.72;;;5.18;;
5379;SDS011;2713;42.680;23.310;2023-03-02T07:00:16;5.82;;;5.22;;
5379;SDS011;2713;42.680;23.310;2023-03-02T07:02:49;6.35;;;5.30;;
5379;SDS011;2713;42.680;23.310;2023-03-02T07:05:20;5.55;;;4.50;;
5379;SDS011;2713;42.680;23.310;2023-03-02T07:07:48;6.13;;;5.60;;
5379;SDS011;2713;42.680;23.310;2023-03-02T07:10:16;6.22;;;5.63;;
5379;SDS011;2713;42.680;23.310;2023-03-02T07:12:44;7.90;;;5.68;;
5379;SDS011;2713;42.680;23.310;2023-03-02T07:15:11;6.63;;;5.40;;
5379;SDS011;2713;42.680;23.310;2023-03-02T07:17:39;14.98;;;5.63;;
5379;SDS011;2713;42.680;23.310;2023-03-02T07:20:08;6.35;;;5.35;;
5379;SDS011;2713;42.680;23.310;2023-03-02T07:22:36;7.65;;;5.40;;
5379;SDS011;2713;42.680;23.310;2023-03-02T07:25:03;5.85;;;5.25;;
5379;SDS011;2713;42.680;23.310;2023-03-02T07:27:33;5.78;;;4.75;;
5379;SDS011;2713;42.680;23.310;2023-03-02T07:30:00;4.88;;;4.20;;
5379;SDS011;2713;42.680;23.310;2023-03-02T07:32:26;5.82;;;4.63;;
5379;SDS011;2713;42.680;23.310;2023-03-02T07:34:53;5.90;;;4.20;;
5379;SDS011;2713;42.680;23.310;2023-03-02T07:37:20;5.13;;;4.70;;
5379;SDS011;2713;42.680;23.310;2023-03-02T07:39:47;6.30;;;5.00;;
5379;SDS011;2713;42.680;23.310;2023-03-02T07:42:15;5.13;;;4.57;;
5379;SDS011;2713;42.680;23.310;2023-03-02T07:44:46;5.00;;;4.47;;
5379;SDS011;2713;42.680;23.310;2023-03-02T07:47:13;6.15;;;4.80;;
5379;SDS011;2713;42.680;23.310;2023-03-02T07:49:40;5.18;;;4.68;;
5379;SDS011;2713;42.680;23.310;2023-03-02T07:52:07;5.20;;;4.70;;
5379;SDS011;2713;42.680;23.310;2023-03-02T07:54:34;6.18;;;5.32;;
5379;SDS011;2713;42.680;23.310;2023-03-02T07:57:00;6.22;;;5.57;;
5379;SDS011;2713;42.680;23.310;2023-03-02T07:59:28;5.35;;;4.80;;
5379;SDS011;2713;42.680;23.310;2023-03-02T08:01:57;5.70;;;4.93;;
5379;SDS011;2713;42.680;23.310;2023-03-02T08:04:24;6.88;;;5.05;;
5379;SDS011;2713;42.680;23.310;2023-03-02T08:06:51;9.32;;;5.40;;
5379;SDS011;2713;42.680;23.310;2023-03-02T08:09:18;7.53;;;4.80;;
5379;SDS011;2713;42.680;23.310;2023-03-02T08:11:44;12.20;;;5.43;;
5379;SDS011;2713;42.680;23.310;2023-03-02T08:14:12;5.30;;;4.80;;
5379;SDS011;2713;42.680;23.310;2023-03-02T08:16:39;5.53;;;4.95;;
5379;SDS011;2713;42.680;23.310;2023-03-02T08:19:07;8.68;;;5.18;;
5379;SDS011;2713;42.680;23.310;2023-03-02T08:21:34;6.43;;;5.25;;
5379;SDS011;2713;42.680;23.310;2023-03-02T08:24:02;6.93;;;5.38;;
5379;SDS011;2713;42.680;23.310;2023-03-02T08:26:29;6.82;;;5.03;;
5379;SDS011;2713;42.680;23.310;2023-03-02T08:28:56;6.45;;;5.55;;
5379;SDS011;2713;42.680;23.310;2023-03-02T08:31:23;7.30;;;5.20;;
5379;SDS011;2713;42.680;23.310;2023-03-02T08:33:50;9.90;;;6.90;;
5379;SDS011;2713;42.680;23.310;2023-03-02T08:36:18;10.88;;;6.93;;
5379;SDS011;2713;42.680;23.310;2023-03-02T08:38:46;9.27;;;6.45;;
5379;SDS011;2713;42.680;23.310;2023-03-02T08:41:14;6.50;;;5.60;;
5379;SDS011;2713;42.680;23.310;2023-03-02T08:43:42;6.95;;;5.43;;
5379;SDS011;2713;42.680;23.310;2023-03-02T08:46:10;6.22;;;5.32;;
5379;SDS011;2713;42.680;23.310;2023-03-02T08:48:39;6.38;;;5.20;;
5379;SDS011;2713;42.680;23.310;2023-03-02T08:51:06;6.70;;;5.75;;
5379;SDS011;2713;42.680;23.310;2023-03-02T08:53:37;6.15;;;5.55;;
5379;SDS011;2713;42.680;23.310;2023-03-02T08:56:13;8.63;;;6.05;;
5379;SDS011;2713;42.680;23.310;2023-03-02T08:58:41;6.63;;;5.83;;
5379;SDS011;2713;42.680;23.310;2023-03-02T09:01:11;7.83;;;6.30;;
5379;SDS011;2713;42.680;23.310;2023-03-02T09:03:39;7.05;;;6.35;;
5379;SDS011;2713;42.680;23.310;2023-03-02T09:06:06;7.53;;;6.20;;
5379;SDS011;2713;42.680;23.310;2023-03-02T09:08:33;6.28;;;5.68;;
5379;SDS011;2713;42.680;23.310;2023-03-02T09:11:01;7.32;;;6.20;;
5379;SDS011;2713;42.680;23.310;2023-03-02T09:13:28;6.83;;;5.90;;
5379;SDS011;2713;42.680;23.310;2023-03-02T09:15:55;7.80;;;7.00;;
5379;SDS011;2713;42.680;23.310;2023-03-02T09:18:22;8.07;;;6.50;;
5379;SDS011;2713;42.680;23.310;2023-03-02T09:20:49;7.17;;;6.40;;
5379;SDS011;2713;42.680;23.310;2023-03-02T09:23:16;7.57;;;6.13;;
5379;SDS011;2713;42.680;23.310;2023-03-02T09:25:43;8.97;;;7.40;;
5379;SDS011;2713;42.680;23.310;2023-03-02T09:28:13;8.07;;;6.97;;
5379;SDS011;2713;42.680;23.310;2023-03-02T09:30:40;7.73;;;6.80;;
5379;SDS011;2713;42.680;23.310;2023-03-02T09:33:07;7.97;;;6.80;;
5379;SDS011;2713;42.680;23.310;2023-03-02T09:35:34;8.80;;;7.53;;
5379;SDS011;2713;42.680;23.310;2023-03-02T09:38:03;9.13;;;7.43;;
5379;SDS011;2713;42.680;23.310;2023-03-02T09:40:30;7.93;;;6.63;;
5379;SDS011;2713;42.680;23.310;2023-03-02T09:45:57;7.87;;;6.20;;
5379;SDS011;2713;42.680;23.310;2023-03-02T09:48:37;7.20;;;6.50;;
5379;SDS011;2713;42.680;23.310;2023-03-02T09:51:19;7.47;;;6.33;;
5379;SDS011;2713;42.680;23.310;2023-03-02T09:53:56;7.90;;;6.80;;
5379;SDS011;2713;42.680;23.310;2023-03-02T09:56:29;7.85;;;6.65;;
5379;SDS011;2713;42.680;23.310;2023-03-02T09:58:59;7.17;;;6.27;;
5379;SDS011;2713;42.680;23.310;2023-03-02T10:01:34;7.67;;;6.43;;
5379;SDS011;2713;42.680;23.310;2023-03-02T10:04:08;6.83;;;6.17;;
5379;SDS011;2713;42.680;23.310;2023-03-02T10:06:44;9.40;;;6.00;;
5379;SDS011;2713;42.680;23.310;2023-03-02T10:09:11;7.10;;;6.40;;
5379;SDS011;2713;42.680;23.310;2023-03-02T10:11:40;8.30;;;6.70;;
5379;SDS011;2713;42.680;23.310;2023-03-02T10:14:21;11.03;;;6.40;;
5379;SDS011;2713;42.680;23.310;2023-03-02T10:16:51;8.03;;;6.80;;
5379;SDS011;2713;42.680;23.310;2023-03-02T10:19:26;6.50;;;5.80;;
5379;SDS011;2713;42.680;23.310;2023-03-02T10:21:59;7.30;;;6.30;;
5379;SDS011;2713;42.680;23.310;2023-03-02T10:24:37;7.20;;;6.50;;
5379;SDS011;2713;42.680;23.310;2023-03-02T10:27:10;6.87;;;5.80;;
5379;SDS011;2713;42.680;23.310;2023-03-02T10:29:46;7.73;;;5.43;;
5379;SDS011;2713;42.680;23.310;2023-03-02T10:32:20;6.60;;;5.90;;
5379;SDS011;2713;42.680;23.310;2023-03-02T10:34:48;6.30;;;5.70;;
5379;SDS011;2713;42.680;23.310;2023-03-02T10:37:18;5.70;;;5.10;;
5379;SDS011;2713;42.680;23.310;2023-03-02T10:39:49;6.00;;;5.40;;
5379;SDS011;2713;42.680;23.310;2023-03-02T10:42:17;8.23;;;5.57;;
5379;SDS011;2713;42.680;23.310;2023-03-02T10:44:49;5.93;;;5.37;;
5379;SDS011;2713;42.680;23.310;2023-03-02T10:47:21;5.95;;;5.45;;
5379;SDS011;2713;42.680;23.310;2023-03-02T10:49:50;6.43;;;5.53;;
5379;SDS011;2713;42.680;23.310;2023-03-02T10:52:18;6.53;;;5.60;;
5379;SDS011;2713;42.680;23.310;2023-03-02T10:54:46;6.60;;;4.70;;
5379;SDS011;2713;42.680;23.310;2023-03-02T11:00:04;6.50;;;4.97;;
5379;SDS011;2713;42.680;23.310;2023-03-02T11:02:47;7.43;;;5.75;;
5379;SDS011;2713;42.680;23.310;2023-03-02T11:05:19;8.67;;;5.57;;
5379;SDS011;2713;42.680;23.310;2023-03-02T11:07:53;5.90;;;5.30;;
5379;SDS011;2713;42.680;23.310;2023-03-02T11:10:22;6.93;;;5.80;;
5379;SDS011;2713;42.680;23.310;2023-03-02T11:12:51;5.60;;;4.73;;
5379;SDS011;2713;42.680;23.310;2023-03-02T11:15:22;6.10;;;5.50;;
5379;SDS011;2713;42.680;23.310;2023-03-02T11:17:56;5.87;;;5.27;;
5379;SDS011;2713;42.680;23.310;2023-03-02T11:20:28;7.47;;;5.57;;
5379;SDS011;2713;42.680;23.310;2023-03-02T11:23:00;6.10;;;5.50;;
5379;SDS011;2713;42.680;23.310;2023-03-02T11:25:34;7.60;;;5.37;;
5379;SDS011;2713;42.680;23.310;2023-03-02T11:28:07;5.40;;;4.90;;
5379;SDS011;2713;42.680;23.310;2023-03-02T11:30:40;6.50;;;5.50;;
5379;SDS011;2713;42.680;23.310;2023-03-02T11:33:14;5.20;;;4.73;;
5379;SDS011;2713;42.680;23.310;2023-03-02T11:35:46;5.77;;;5.20;;
5379;SDS011;2713;42.680;23.310;2023-03-02T11:38:18;5.80;;;5.30;;
5379;SDS011;2713;42.680;23.310;2023-03-02T11:40:50;5.70;;;5.20;;
5379;SDS011;2713;42.680;23.310;2023-03-02T11:43:20;5.00;;;4.50;;
5379;SDS011;2713;42.680;23.310;2023-03-02T11:45:51;5.90;;;4.90;;
5379;SDS011;2713;42.680;23.310;2023-03-02T11:48:25;4.93;;;4.53;;
5379;SDS011;2713;42.680;23.310;2023-03-02T11:50:57;6.47;;;4.90;;
5379;SDS011;2713;42.680;23.310;2023-03-02T11:53:26;7.17;;;4.27;;
5379;SDS011;2713;42.680;23.310;2023-03-02T11:55:58;8.10;;;5.10;;
5379;SDS011;2713;42.680;23.310;2023-03-02T11:58:25;7.53;;;5.67;;
5379;SDS011;2713;42.680;23.310;2023-03-02T12:00:56;5.80;;;5.00;;
5379;SDS011;2713;42.680;23.310;2023-03-02T12:03:34;6.83;;;4.80;;
5379;SDS011;2713;42.680;23.310;2023-03-02T12:06:04;5.23;;;4.73;;
5379;SDS011;2713;42.680;23.310;2023-03-02T12:08:37;5.67;;;5.17;;
5379;SDS011;2713;42.680;23.310;2023-03-02T12:11:06;6.73;;;5.07;;
5379;SDS011;2713;42.680;23.310;2023-03-02T12:13:57;6.37;;;5.03;;
5379;SDS011;2713;42.680;23.310;2023-03-02T12:16:34;5.60;;;4.97;;
5379;SDS011;2713;42.680;23.310;2023-03-02T12:19:10;8.40;;;5.30;;
5379;SDS011;2713;42.680;23.310;2023-03-02T12:21:40;6.10;;;5.23;;
5379;SDS011;2713;42.680;23.310;2023-03-02T12:24:20;5.43;;;4.93;;
5379;SDS011;2713;42.680;23.310;2023-03-02T12:26:59;5.13;;;4.63;;
5379;SDS011;2713;42.680;23.310;2023-03-02T12:29:37;10.70;;;4.87;;
5379;SDS011;2713;42.680;23.310;2023-03-02T12:32:11;5.43;;;4.20;;
5379;SDS011;2713;42.680;23.310;2023-03-02T12:34:50;6.00;;;4.40;;
5379;SDS011;2713;42.680;23.310;2023-03-02T12:37:20;5.67;;;4.37;;
5379;SDS011;2713;42.680;23.310;2023-03-02T12:40:06;7.07;;;3.57;;
5379;SDS011;2713;42.680;23.310;2023-03-02T12:43:08;5.40;;;4.10;;
5379;SDS011;2713;42.680;23.310;2023-03-02T12:45:47;4.63;;;4.20;;
5379;SDS011;2713;42.680;23.310;2023-03-02T12:48:38;5.57;;;4.30;;
5379;SDS011;2713;42.680;23.310;2023-03-02T12:51:11;4.70;;;4.30;;
5379;SDS011;2713;42.680;23.310;2023-03-02T12:53:43;10.20;;;4.33;;
5379;SDS011;2713;42.680;23.310;2023-03-02T12:56:19;5.03;;;4.47;;
5379;SDS011;2713;42.680;23.310;2023-03-02T12:58:48;4.37;;;3.97;;
5379;SDS011;2713;42.680;23.310;2023-03-02T13:01:19;4.60;;;3.80;;
5379;SDS011;2713;42.680;23.310;2023-03-02T13:03:49;4.07;;;3.73;;
5379;SDS011;2713;42.680;23.310;2023-03-02T13:06:16;4.43;;;4.10;;
5379;SDS011;2713;42.680;23.310;2023-03-02T13:08:45;5.53;;;4.00;;
5379;SDS011;2713;42.680;23.310;2023-03-02T13:11:13;4.57;;;3.80;;
5379;SDS011;2713;42.680;23.310;2023-03-02T13:13:47;4.77;;;4.17;;
5379;SDS011;2713;42.680;23.310;2023-03-02T13:16:19;4.20;;;3.83;;
5379;SDS011;2713;42.680;23.310;2023-03-02T13:18:49;5.43;;;4.30;;
5379;SDS011;2713;42.680;23.310;2023-03-02T13:21:20;5.17;;;4.10;;
5379;SDS011;2713;42.680;23.310;2023-03-02T13:23:53;6.60;;;4.50;;
5379;SDS011;2713;42.680;23.310;2023-03-02T13:26:23;4.20;;;3.90;;
5379;SDS011;2713;42.680;23.310;2023-03-02T13:29:02;3.73;;;3.50;;
5379;SDS011;2713;42.680;23.310;2023-03-02T13:31:30;4.10;;;3.80;;
5379;SDS011;2713;42.680;23.310;2023-03-02T13:33:59;4.17;;;3.63;;
5379;SDS011;2713;42.680;23.310;2023-03-02T13:36:27;4.37;;;3.97;;
5379;SDS011;2713;42.680;23.310;2023-03-02T13:38:55;5.50;;;4.67;;
5379;SDS011;2713;42.680;23.310;2023-03-02T13:41:24;4.30;;;3.90;;
5379;SDS011;2713;42.680;23.310;2023-03-02T13:43:53;7.07;;;4.70;;
5379;SDS011;2713;42.680;23.310;2023-03-02T13:46:24;5.00;;;4.50;;
5379;SDS011;2713;42.680;23.310;2023-03-02T13:48:54;4.77;;;4.20;;
5379;SDS011;2713;42.680;23.310;2023-03-02T13:51:24;5.23;;;4.57;;
5379;SDS011;2713;42.680;23.310;2023-03-02T13:53:53;5.07;;;4.57;;
5379;SDS011;2713;42.680;23.310;2023-03-02T13:56:23;8.40;;;5.10;;
5379;SDS011;2713;42.680;23.310;2023-03-02T13:58:54;4.00;;;3.57;;
5379;SDS011;2713;42.680;23.310;2023-03-02T14:01:21;3.70;;;3.40;;
5379;SDS011;2713;42.680;23.310;2023-03-02T14:03:48;6.07;;;3.63;;
5379;SDS011;2713;42.680;23.310;2023-03-02T14:06:15;5.40;;;3.83;;
5379;SDS011;2713;42.680;23.310;2023-03-02T14:08:44;4.57;;;3.40;;
5379;SDS011;2713;42.680;23.310;2023-03-02T14:11:11;3.60;;;3.30;;
5379;SDS011;2713;42.680;23.310;2023-03-02T14:13:39;6.40;;;3.53;;
5379;SDS011;2713;42.680;23.310;2023-03-02T14:16:09;5.43;;;4.10;;
5379;SDS011;2713;42.680;23.310;2023-03-02T14:18:38;8.33;;;4.30;;
5379;SDS011;2713;42.680;23.310;2023-03-02T14:21:09;6.67;;;4.40;;
5379;SDS011;2713;42.680;23.310;2023-03-02T14:23:37;6.13;;;5.10;;
5379;SDS011;2713;42.680;23.310;2023-03-02T14:26:08;6.67;;;4.97;;
5379;SDS011;2713;42.680;23.310;2023-03-02T14:28:44;6.53;;;5.67;;
5379;SDS011;2713;42.680;23.310;2023-03-02T14:31:11;10.13;;;5.77;;
5379;SDS011;2713;42.680;23.310;2023-03-02T14:33:38;7.43;;;5.33;;
5379;SDS011;2713;42.680;23.310;2023-03-02T14:36:08;9.03;;;5.93;;
5379;SDS011;2713;42.680;23.310;2023-03-02T14:38:40;7.37;;;5.93;;
5379;SDS011;2713;42.680;23.310;2023-03-02T14:41:10;9.63;;;6.50;;
5379;SDS011;2713;42.680;23.310;2023-03-02T14:43:40;9.80;;;6.50;;
5379;SDS011;2713;42.680;23.310;2023-03-02T14:46:07;7.53;;;6.30;;
5379;SDS011;2713;42.680;23.310;2023-03-02T14:48:33;10.17;;;6.30;;
5379;SDS011;2713;42.680;23.310;2023-03-02T14:51:00;7.30;;;5.70;;
5379;SDS011;2713;42.680;23.310;2023-03-02T14:53:28;9.83;;;6.67;;
5379;SDS011;2713;42.680;23.310;2023-03-02T14:55:57;8.77;;;6.87;;
5379;SDS011;2713;42.680;23.310;2023-03-02T14:58:28;8.73;;;5.43;;
5379;SDS011;2713;42.680;23.310;2023-03-02T15:00:57;8.77;;;6.27;;
5379;SDS011;2713;42.680;23.310;2023-03-02T15:03:24;9.57;;;6.57;;
5379;SDS011;2713;42.680;23.310;2023-03-02T15:05:52;6.50;;;5.80;;
5379;SDS011;2713;42.680;23.310;2023-03-02T15:08:20;10.40;;;6.27;;
5379;SDS011;2713;42.680;23.310;2023-03-02T15:10:48;8.60;;;6.73;;
5379;SDS011;2713;42.680;23.310;2023-03-02T15:13:18;6.33;;;5.30;;
5379;SDS011;2713;42.680;23.310;2023-03-02T15:15:46;7.10;;;5.70;;
5379;SDS011;2713;42.680;23.310;2023-03-02T15:18:14;6.70;;;5.67;;
5379;SDS011;2713;42.680;23.310;2023-03-02T15:20:43;8.23;;;4.93;;